Time;durP1;ratioP1;P1;durP2;ratioP2;P2;SDS_P1;SDS_P2;PMS_P1;PMS_P2;Temp;Humidity;BMP_temperature;BMP_pressure;BME280_temperature;BME280_humidity;BME280_pressure;Samples;Min_cycle;Max_cycle;Signal;HPM_P1;HPM_P2
2021/07/10 00:00:13;;;;;;;4.75;3.25;;;;;;;14.39;48.03;101875.13;5053567;28;20024;-88
2021/07/10 00:02:40;;;;;;;5.15;3.78;;;;;;;14.28;48.32;101879.03;5029802;28;20053;-88
2021/07/10 00:05:07;;;;;;;6.18;4.38;;;;;;;14.06;48.78;101878.19;5049720;28;20040;-89
2021/07/10 00:07:33;;;;;;;6.72;4.28;;;;;;;13.95;49.26;101881.22;5049501;28;20033;-88
2021/07/10 00:10:00;;;;;;;6.57;4.00;;;;;;;13.87;49.30;101880.66;5050352;28;20071;-89
2021/07/10 00:12:26;;;;;;;5.15;3.90;;;;;;;13.89;49.22;101879.66;5034809;28;20025;-88
2021/07/10 00:14:52;;;;;;;6.47;4.60;;;;;;;13.89;49.58;101871.78;5046114;28;20127;-90
2021/07/10 00:17:18;;;;;;;9.95;5.05;;;;;;;13.99;49.42;101868.81;5051008;28;20075;-89
2021/07/10 00:19:43;;;;;;;7.50;4.13;;;;;;;13.99;49.46;101868.81;5047755;28;20079;-88
2021/07/10 00:22:09;;;;;;;6.43;4.95;;;;;;;13.86;49.21;101861.41;5063750;28;20392;-89
2021/07/10 00:24:35;;;;;;;10.23;5.03;;;;;;;13.82;49.64;101872.09;5046772;28;20100;-88
2021/07/10 00:27:01;;;;;;;9.02;4.85;;;;;;;13.73;49.88;101870.66;5033174;28;20043;-88
2021/07/10 00:29:27;;;;;;;8.65;4.95;;;;;;;13.62;49.80;101868.44;5028352;28;20036;-87
2021/07/10 00:31:52;;;;;;;9.95;5.85;;;;;;;13.56;50.11;101867.75;5032237;28;20616;-90
2021/07/10 00:34:18;;;;;;;7.28;4.57;;;;;;;13.58;50.05;101865.97;5049953;28;20032;-90
2021/07/10 00:36:44;;;;;;;5.85;4.72;;;;;;;13.50;49.92;101864.47;5052548;28;20120;-89
2021/07/10 00:39:09;;;;;;;8.20;4.63;;;;;;;13.47;50.08;101853.19;5049876;28;20036;-88
2021/07/10 00:41:35;;;;;;;4.88;4.10;;;;;;;13.48;50.48;101865.44;5052363;28;20037;-89
2021/07/10 00:44:00;;;;;;;7.22;4.97;;;;;;;13.35;50.27;101859.75;5045402;28;20021;-90
2021/07/10 00:46:26;;;;;;;7.03;5.20;;;;;;;13.25;50.59;101864.50;5062315;28;20021;-89
2021/07/10 00:48:52;;;;;;;6.68;4.10;;;;;;;13.20;50.70;101858.53;5044367;28;20025;-89
2021/07/10 00:51:19;;;;;;;4.88;3.92;;;;;;;13.44;50.33;101854.16;5041484;28;20097;-90
2021/07/10 00:53:46;;;;;;;6.68;4.43;;;;;;;13.51;50.16;101844.31;5057328;28;20021;-88
2021/07/10 00:56:12;;;;;;;9.23;4.25;;;;;;;13.49;50.13;101839.09;5040056;28;20025;-90
2021/07/10 00:58:38;;;;;;;8.27;4.85;;;;;;;13.45;49.85;101842.78;5041807;28;20041;-91
2021/07/10 01:01:04;;;;;;;6.90;4.68;;;;;;;13.49;50.14;101846.13;5081205;28;20057;-90
2021/07/10 01:03:34;;;;;;;6.60;3.92;;;;;;;13.51;49.97;101845.16;5041208;28;20021;-89
2021/07/10 01:06:01;;;;;;;7.97;4.30;;;;;;;13.56;49.51;101852.00;5042708;28;20055;-90
2021/07/10 01:08:27;;;;;;;7.18;4.80;;;;;;;13.62;49.67;101854.44;5075997;28;20040;-88
2021/07/10 01:10:53;;;;;;;6.07;3.47;;;;;;;13.73;49.28;101839.97;5049048;28;20088;-89
2021/07/10 01:13:20;;;;;;;4.45;3.53;;;;;;;13.85;49.21;101836.06;5064220;28;20104;-92
2021/07/10 01:15:46;;;;;;;6.68;4.88;;;;;;;13.94;48.65;101827.81;5056423;28;20115;-89
2021/07/10 01:18:11;;;;;;;8.95;5.43;;;;;;;14.06;48.75;101830.88;5058054;28;20029;-91
2021/07/10 01:20:51;;;;;;;7.63;5.30;;;;;;;14.15;48.04;101823.47;5039038;28;20359;-90
2021/07/10 01:23:17;;;;;;;7.15;4.35;;;;;;;14.24;47.76;101819.59;5039256;28;20122;-92
2021/07/10 01:25:44;;;;;;;6.72;4.35;;;;;;;14.15;47.63;101818.19;5040599;28;20032;-91
2021/07/10 01:28:10;;;;;;;9.98;3.90;;;;;;;14.27;47.95;101830.00;5032825;28;20029;-87
2021/07/10 01:30:38;;;;;;;5.85;4.55;;;;;;;14.30;47.73;101823.75;5043875;28;20048;-88
2021/07/10 01:33:05;;;;;;;8.25;3.72;;;;;;;14.36;47.69;101821.72;5040021;28;20144;-88
2021/07/10 01:35:31;;;;;;;7.35;4.40;;;;;;;14.15;48.06;101820.81;5051137;28;20024;-89
2021/07/10 01:37:57;;;;;;;7.78;3.55;;;;;;;14.15;47.96;101814.72;5025769;28;20029;-88
2021/07/10 01:40:25;;;;;;;7.15;4.93;;;;;;;14.12;47.69;101812.19;5061517;28;20033;-89
2021/07/10 01:42:51;;;;;;;8.05;4.18;;;;;;;14.03;47.70;101809.94;5044464;28;20075;-88
2021/07/10 01:45:20;;;;;;;7.10;3.67;;;;;;;13.92;48.17;101811.25;5045309;28;20020;-89
2021/07/10 01:47:46;;;;;;;6.35;4.00;;;;;;;13.83;48.21;101808.97;5030858;28;20058;-89
2021/07/10 01:50:13;;;;;;;6.10;4.35;;;;;;;13.74;48.42;101811.94;5046447;28;20086;-90
2021/07/10 01:52:40;;;;;;;5.10;3.60;;;;;;;13.64;48.85;101807.97;5044831;28;20052;-88
2021/07/10 01:55:09;;;;;;;3.65;3.13;;;;;;;13.61;49.14;101824.69;5038992;28;20035;-88
2021/07/10 01:57:35;;;;;;;5.38;4.05;;;;;;;13.45;49.06;101823.50;5052468;28;20037;-88
2021/07/10 02:00:00;;;;;;;5.63;3.90;;;;;;;13.51;49.00;101824.13;5026348;28;20025;-89
2021/07/10 02:02:26;;;;;;;5.28;3.55;;;;;;;13.35;49.39;101823.00;5028688;28;20041;-90
2021/07/10 02:04:52;;;;;;;4.10;3.13;;;;;;;13.32;49.86;101818.72;5060315;28;20036;-89
2021/07/10 02:07:19;;;;;;;8.10;3.92;;;;;;;13.11;50.19;101820.34;5042460;28;20395;-89
2021/07/10 02:09:45;;;;;;;10.02;5.32;;;;;;;13.08;50.21;101814.38;5025364;28;20058;-89
2021/07/10 02:12:11;;;;;;;7.10;5.03;;;;;;;13.18;50.32;101820.13;5064177;28;20032;-89
2021/07/10 02:14:37;;;;;;;6.13;4.35;;;;;;;13.21;50.26;101809.53;5042091;28;20047;-89
2021/07/10 02:17:03;;;;;;;6.10;4.47;;;;;;;13.12;50.09;101805.47;5024297;28;20100;-88
2021/07/10 02:19:29;;;;;;;7.43;4.82;;;;;;;13.06;50.35;101816.19;5026551;28;20099;-89
2021/07/10 02:21:54;;;;;;;9.65;5.07;;;;;;;13.03;50.41;101817.16;5025721;28;20045;-88
2021/07/10 02:24:20;;;;;;;7.32;4.68;;;;;;;13.07;50.57;101812.63;5024958;28;20100;-90
2021/07/10 02:26:46;;;;;;;8.93;5.68;;;;;;;12.90;50.57;101815.88;5030454;28;20033;-89
2021/07/10 02:29:11;;;;;;;8.27;5.68;;;;;;;12.83;50.75;101809.13;5022153;28;20025;-89
2021/07/10 02:31:37;;;;;;;10.98;6.35;;;;;;;12.90;51.21;101810.63;5040497;28;20528;-89
2021/07/10 02:34:03;;;;;;;10.18;6.45;;;;;;;12.94;51.06;101799.13;5023115;28;20036;-88
2021/07/10 02:36:30;;;;;;;7.57;5.50;;;;;;;13.05;50.70;101799.59;5045063;28;20511;-90
2021/07/10 02:38:56;;;;;;;10.90;5.82;;;;;;;13.09;50.86;101809.06;5026878;28;20159;-89
2021/07/10 02:41:22;;;;;;;8.93;6.10;;;;;;;13.18;50.98;101804.38;5022267;28;20114;-89
2021/07/10 02:43:48;;;;;;;8.75;5.07;;;;;;;13.29;50.80;101799.59;5038544;28;20047;-88
2021/07/10 02:46:16;;;;;;;11.20;6.10;;;;;;;13.34;50.27;101789.78;5042626;28;20029;-90
2021/07/10 02:48:44;;;;;;;7.10;4.38;;;;;;;13.40;50.35;101794.78;5057718;28;20028;-91
2021/07/10 02:51:10;;;;;;;7.07;5.20;;;;;;;13.42;50.07;101781.63;5031607;28;20565;-88
2021/07/10 02:53:36;;;;;;;8.07;5.45;;;;;;;13.36;50.02;101785.34;5050523;28;20087;-89
2021/07/10 02:56:02;;;;;;;6.82;5.15;;;;;;;13.28;50.02;101779.50;5032783;28;20036;-89
2021/07/10 02:58:27;;;;;;;8.98;5.20;;;;;;;13.10;50.26;101776.66;5054300;28;20024;-89
2021/07/10 03:00:53;;;;;;;8.93;4.78;;;;;;;13.05;50.28;101775.97;5046187;28;20047;-90
2021/07/10 03:03:19;;;;;;;8.13;4.30;;;;;;;12.99;50.50;101776.19;5044646;28;20025;-89
2021/07/10 03:05:44;;;;;;;6.72;4.68;;;;;;;12.81;50.61;101772.44;5043709;28;20123;-88
2021/07/10 03:08:10;;;;;;;5.50;3.58;;;;;;;12.76;51.06;101776.13;5048466;28;20032;-89
2021/07/10 03:10:35;;;;;;;12.55;5.18;;;;;;;12.75;50.97;101775.28;5029108;28;20040;-88
2021/07/10 03:13:01;;;;;;;6.95;4.35;;;;;;;12.75;51.01;101771.81;5027180;28;20048;-89
2021/07/10 03:15:28;;;;;;;8.27;5.00;;;;;;;12.87;50.92;101769.59;5025922;28;20032;-89
2021/07/10 03:17:54;;;;;;;9.35;4.88;;;;;;;12.83;50.44;101773.25;5026261;28;20037;-89
2021/07/10 03:20:23;;;;;;;9.63;4.97;;;;;;;12.84;50.72;101768.84;5064106;28;20048;-89
2021/07/10 03:22:49;;;;;;;11.57;5.47;;;;;;;12.82;50.95;101771.50;5026779;28;20116;-89
2021/07/10 03:25:16;;;;;;;7.85;5.28;;;;;;;12.80;51.19;101770.72;5027927;28;20036;-89
2021/07/10 03:27:43;;;;;;;7.70;5.30;;;;;;;12.74;51.69;101767.47;5047351;28;20094;-88
2021/07/10 03:30:11;;;;;;;9.55;5.85;;;;;;;12.64;52.13;101762.50;5027513;28;20053;-88
2021/07/10 03:32:38;;;;;;;8.57;5.43;;;;;;;12.85;51.77;101760.09;5049382;28;20378;-88
2021/07/10 03:35:05;;;;;;;10.30;5.65;;;;;;;12.97;51.58;101757.00;5027293;28;20041;-89
2021/07/10 03:37:31;;;;;;;11.00;5.97;;;;;;;13.00;51.54;101751.63;5028878;28;20098;-89
2021/07/10 03:39:56;;;;;;;8.45;4.70;;;;;;;13.05;51.45;101752.34;5048028;28;20029;-90
2021/07/10 03:42:22;;;;;;;7.30;5.10;;;;;;;13.23;51.14;101756.06;5045607;28;20493;-90
2021/07/10 03:44:47;;;;;;;9.85;6.13;;;;;;;13.39;50.70;101745.84;5027163;28;20033;-91
2021/07/10 03:47:14;;;;;;;9.07;5.60;;;;;;;13.46;50.47;101751.72;5031600;28;20492;-89
2021/07/10 03:49:40;;;;;;;11.32;5.45;;;;;;;13.29;50.33;101739.22;5030798;28;20491;-89
2021/07/10 03:52:06;;;;;;;13.77;6.15;;;;;;;13.21;50.74;101742.13;5033036;28;20101;-89
2021/07/10 03:54:32;;;;;;;11.57;6.68;;;;;;;13.15;50.93;101741.50;5061646;28;20048;-87
2021/07/10 03:56:57;;;;;;;9.32;6.00;;;;;;;13.15;51.29;101741.50;5026257;28;20033;-89
2021/07/10 03:59:23;;;;;;;8.20;5.57;;;;;;;13.13;51.40;101744.19;5027513;28;20453;-88
2021/07/10 04:01:48;;;;;;;9.00;5.60;;;;;;;13.10;51.63;101747.78;5042091;28;20029;-90
2021/07/10 04:04:14;;;;;;;10.38;5.88;;;;;;;13.00;51.65;101735.88;5025593;28;20098;-89
2021/07/10 04:06:40;;;;;;;13.93;6.32;;;;;;;12.98;51.39;101729.88;5043430;28;20041;-90
2021/07/10 04:09:07;;;;;;;8.70;5.47;;;;;;;12.95;51.54;101732.59;5027410;28;20021;-88
2021/07/10 04:11:33;;;;;;;10.05;6.22;;;;;;;12.90;51.69;101724.03;5026181;28;20035;-89
2021/07/10 04:13:58;;;;;;;6.82;5.05;;;;;;;13.04;51.32;101719.13;5028275;28;20463;-89
2021/07/10 04:16:24;;;;;;;12.23;6.28;;;;;;;13.19;51.52;101719.47;5026205;28;20032;-90
2021/07/10 04:18:49;;;;;;;10.32;6.22;;;;;;;13.39;51.22;101724.81;5040873;28;20105;-89
2021/07/10 04:21:15;;;;;;;10.05;5.95;;;;;;;13.60;50.58;101727.56;5043952;28;20036;-89
2021/07/10 04:23:41;;;;;;;10.77;6.20;;;;;;;13.68;50.39;101728.97;5043637;28;20044;-88
2021/07/10 04:26:07;;;;;;;10.80;6.18;;;;;;;13.69;50.70;101717.53;5043972;28;20109;-90
2021/07/10 04:28:32;;;;;;;10.25;6.15;;;;;;;13.64;50.65;101724.75;5048311;28;20029;-89
2021/07/10 04:30:58;;;;;;;11.05;6.10;;;;;;;13.78;50.97;101724.19;5040954;28;20064;-91
2021/07/10 04:33:24;;;;;;;10.43;5.28;;;;;;;13.98;49.99;101727.81;5027764;28;20040;-90
2021/07/10 04:35:50;;;;;;;7.85;4.93;;;;;;;14.11;49.54;101726.38;5022340;28;20033;-89
2021/07/10 04:38:15;;;;;;;9.77;5.50;;;;;;;14.31;49.82;101731.66;5027907;28;20040;-90
2021/07/10 04:40:42;;;;;;;11.38;6.05;;;;;;;14.45;48.65;101735.50;5020923;28;20030;-90
2021/07/10 04:43:09;;;;;;;9.25;6.60;;;;;;;14.47;48.08;101741.56;5041678;28;20056;-89
2021/07/10 04:45:35;;;;;;;9.43;6.75;;;;;;;14.31;49.11;101742.16;5044642;28;20036;-88
2021/07/10 04:48:01;;;;;;;7.40;5.80;;;;;;;14.40;49.41;101745.34;5026119;28;20044;-89
2021/07/10 04:50:26;;;;;;;9.32;6.30;;;;;;;14.47;48.95;101746.81;5050973;28;20062;-89
2021/07/10 04:52:52;;;;;;;11.18;5.70;;;;;;;14.43;49.11;101745.22;5062379;28;20033;-89
2021/07/10 04:55:18;;;;;;;10.30;6.50;;;;;;;14.46;49.31;101753.00;5023985;28;20082;-90
2021/07/10 04:57:45;;;;;;;8.75;5.82;;;;;;;14.64;49.35;101743.47;5038621;28;20059;-88
2021/07/10 05:00:12;;;;;;;10.15;5.30;;;;;;;14.72;48.27;101736.97;5052184;28;20524;-91
2021/07/10 05:02:38;;;;;;;8.60;6.53;;;;;;;14.57;48.76;101742.88;5042869;28;20052;-89
2021/07/10 05:05:05;;;;;;;12.82;6.28;;;;;;;14.51;49.08;101732.63;5030727;28;20036;-89
2021/07/10 05:07:30;;;;;;;10.65;6.97;;;;;;;14.68;48.68;101735.38;5041696;28;20055;-87
2021/07/10 05:09:56;;;;;;;12.73;7.05;;;;;;;14.51;48.59;101730.84;5026271;28;20033;-89
2021/07/10 05:12:22;;;;;;;10.32;6.53;;;;;;;14.69;49.55;101726.53;5043891;28;20523;-88
2021/07/10 05:14:50;;;;;;;8.32;5.90;;;;;;;14.85;48.96;101721.47;5026219;28;20032;-90
2021/07/10 05:17:17;;;;;;;11.07;5.40;;;;;;;14.89;48.42;101728.28;5044295;28;20061;-89
2021/07/10 05:19:42;;;;;;;8.32;5.35;;;;;;;14.82;48.46;101718.13;5026717;28;20036;-88
2021/07/10 05:22:08;;;;;;;9.18;5.65;;;;;;;15.16;48.33;101712.19;5030142;28;20035;-87
2021/07/10 05:24:34;;;;;;;7.90;5.53;;;;;;;15.25;47.38;101713.56;5037887;28;20025;-90
2021/07/10 05:27:01;;;;;;;8.60;5.82;;;;;;;15.29;47.90;101715.13;5029853;28;20080;-88
2021/07/10 05:29:27;;;;;;;9.95;5.80;;;;;;;15.16;47.74;101713.03;5027186;28;20048;-90
2021/07/10 05:31:53;;;;;;;7.60;5.47;;;;;;;14.96;48.50;101713.94;5027566;28;20489;-87
2021/07/10 05:34:21;;;;;;;10.18;5.72;;;;;;;15.24;48.52;101707.44;5062460;28;20040;-89
2021/07/10 05:36:47;;;;;;;14.90;6.10;;;;;;;15.22;48.41;101703.19;5026072;28;20044;-89
2021/07/10 05:39:14;;;;;;;9.07;6.07;;;;;;;15.64;47.84;101709.94;5042120;28;20035;-90
2021/07/10 05:41:40;;;;;;;7.43;5.40;;;;;;;15.63;47.16;101708.25;5027929;28;20429;-91
2021/07/10 05:44:06;;;;;;;8.60;5.93;;;;;;;15.73;47.22;101704.25;5051989;28;20039;-89
2021/07/10 05:46:32;;;;;;;9.63;5.18;;;;;;;15.66;48.32;101708.09;5028415;28;20478;-90
2021/07/10 05:48:58;;;;;;;7.28;4.97;;;;;;;15.84;47.05;101711.63;5022109;28;20029;-90
2021/07/10 05:51:24;;;;;;;10.90;5.68;;;;;;;15.89;46.73;101721.03;5022921;28;20033;-91
2021/07/10 05:53:49;;;;;;;8.50;5.88;;;;;;;15.95;46.64;101714.56;5021359;28;20033;-89
2021/07/10 05:56:15;;;;;;;9.10;5.20;;;;;;;16.10;46.99;101713.84;5021775;28;20064;-89
2021/07/10 05:58:41;;;;;;;7.30;5.10;;;;;;;16.36;46.60;101715.19;5021528;28;20090;-90
2021/07/10 06:01:06;;;;;;;12.40;5.75;;;;;;;16.31;47.00;101722.47;5037892;28;20276;-87
2021/07/10 06:03:32;;;;;;;8.38;5.18;;;;;;;16.32;46.55;101729.44;5040068;28;20029;-91
2021/07/10 06:05:57;;;;;;;7.10;4.88;;;;;;;16.12;46.81;101729.59;5022614;28;20060;-91
2021/07/10 06:08:23;;;;;;;11.55;5.40;;;;;;;16.14;46.63;101730.38;5022787;28;20044;-90
2021/07/10 06:10:48;;;;;;;7.13;4.80;;;;;;;16.20;46.76;101735.38;5037975;28;20490;-89
2021/07/10 06:13:14;;;;;;;9.88;5.55;;;;;;;16.21;47.04;101731.78;5021731;28;20029;-89
2021/07/10 06:15:39;;;;;;;6.45;4.65;;;;;;;16.01;47.42;101724.88;5022220;28;20032;-90
2021/07/10 06:18:05;;;;;;;7.25;4.32;;;;;;;15.89;47.81;101721.03;5019289;28;20033;-90
2021/07/10 06:20:33;;;;;;;7.32;4.75;;;;;;;15.98;46.76;101722.34;5020884;28;20023;-90
2021/07/10 06:22:58;;;;;;;7.90;4.50;;;;;;;16.03;47.09;101733.56;5018958;28;20024;-88
2021/07/10 06:25:24;;;;;;;8.18;4.72;;;;;;;16.33;47.21;101732.94;5039861;28;20049;-89
2021/07/10 06:27:50;;;;;;;7.72;4.78;;;;;;;16.40;46.59;101737.00;5025780;28;20034;-91
2021/07/10 06:30:16;;;;;;;5.88;4.53;;;;;;;16.34;46.78;101740.78;5040437;28;20258;-91
2021/07/10 06:32:42;;;;;;;6.95;4.68;;;;;;;16.61;46.86;101735.03;5040605;28;20593;-90
2021/07/10 06:35:10;;;;;;;6.38;3.45;;;;;;;16.43;46.06;101744.75;5019626;28;20501;-88
2021/07/10 06:37:36;;;;;;;5.47;3.75;;;;;;;16.17;46.39;101746.88;5052272;28;20041;-89
2021/07/10 06:40:03;;;;;;;6.25;2.97;;;;;;;16.57;46.60;101738.75;5024549;28;20064;-90
2021/07/10 06:42:28;;;;;;;4.00;3.38;;;;;;;16.71;45.00;101736.25;5043185;28;20074;-90
2021/07/10 06:44:54;;;;;;;5.82;3.65;;;;;;;16.78;46.00;101734.19;5042198;28;20033;-91
2021/07/10 06:47:21;;;;;;;3.97;3.33;;;;;;;16.70;45.38;101739.81;5024656;28;20623;-91
2021/07/10 06:49:46;;;;;;;3.33;2.88;;;;;;;17.02;45.52;101745.19;5040828;28;20120;-91
2021/07/10 06:52:12;;;;;;;5.30;3.63;;;;;;;16.98;44.52;101743.69;5045401;28;20047;-88
2021/07/10 06:54:38;;;;;;;5.32;3.80;;;;;;;17.05;43.75;101739.78;5041809;28;20032;-90
2021/07/10 06:57:05;;;;;;;3.78;2.72;;;;;;;17.13;44.60;101740.19;5042975;28;20040;-88
2021/07/10 06:59:31;;;;;;;5.72;2.72;;;;;;;17.31;44.16;101738.34;5042846;28;20033;-92
2021/07/10 07:01:56;;;;;;;3.90;3.17;;;;;;;17.50;43.39;101740.84;5040375;28;20036;-90
2021/07/10 07:04:22;;;;;;;2.78;2.38;;;;;;;17.36;43.78;101738.09;5041947;28;20049;-90
2021/07/10 07:06:48;;;;;;;5.95;2.10;;;;;;;17.41;43.21;101736.06;5041351;28;20043;-89
2021/07/10 07:09:13;;;;;;;3.28;2.72;;;;;;;17.59;42.37;101739.50;5043076;28;20460;-89
2021/07/10 07:11:39;;;;;;;6.18;3.40;;;;;;;17.72;42.27;101739.66;5038029;28;20049;-90
2021/07/10 07:14:05;;;;;;;3.35;2.53;;;;;;;17.76;41.60;101743.81;5025769;28;20061;-89
2021/07/10 07:16:32;;;;;;;4.32;2.40;;;;;;;17.83;40.34;101739.91;5042941;28;20036;-91
2021/07/10 07:18:57;;;;;;;3.08;2.10;;;;;;;17.90;41.54;101733.31;5026707;28;20037;-90
2021/07/10 07:21:24;;;;;;;4.28;2.25;;;;;;;18.08;40.97;101741.13;5027360;28;20032;-89
2021/07/10 07:23:50;;;;;;;4.50;2.33;;;;;;;18.30;39.76;101740.75;5028146;28;20101;-90
2021/07/10 07:26:19;;;;;;;2.88;1.88;;;;;;;18.14;39.93;101735.44;5027037;28;20013;-90
2021/07/10 07:28:48;;;;;;;2.35;1.98;;;;;;;18.34;39.89;101743.13;5060786;28;20033;-89
2021/07/10 07:31:14;;;;;;;3.13;2.33;;;;;;;18.14;39.95;101740.75;5029433;28;20032;-89
2021/07/10 07:33:40;;;;;;;1.90;1.60;;;;;;;18.67;38.99;101739.38;5032795;28;20068;-89
2021/07/10 07:36:08;;;;;;;2.33;1.63;;;;;;;18.97;38.20;101730.53;5032077;28;20122;-89
2021/07/10 07:38:37;;;;;;;2.88;1.42;;;;;;;18.83;37.50;101724.28;5055505;28;20036;-89
2021/07/10 07:41:05;;;;;;;3.92;1.60;;;;;;;18.90;38.18;101732.72;5070219;28;20028;-89
2021/07/10 07:43:31;;;;;;;3.47;1.80;;;;;;;19.33;36.93;101727.34;5054716;28;20272;-88
2021/07/10 07:45:57;;;;;;;3.03;2.45;;;;;;;19.63;36.63;101724.53;5034154;28;20059;-89
2021/07/10 07:48:23;;;;;;;2.10;1.40;;;;;;;19.60;36.10;101727.41;5062559;28;20101;-88
2021/07/10 07:50:49;;;;;;;2.05;1.50;;;;;;;19.58;34.92;101721.34;5048886;28;20087;-90
2021/07/10 07:53:16;;;;;;;3.08;2.40;;;;;;;19.83;35.32;101727.69;5059140;28;20025;-88
2021/07/10 07:55:43;;;;;;;2.22;1.63;;;;;;;20.24;34.58;101735.59;5031347;28;20063;-89
2021/07/10 07:58:09;;;;;;;2.58;1.92;;;;;;;20.13;34.43;101728.31;5048728;28;20033;-88
2021/07/10 08:00:35;;;;;;;3.22;1.60;;;;;;;20.42;34.97;101729.97;5069017;28;20032;-89
2021/07/10 08:03:02;;;;;;;3.00;1.95;;;;;;;20.72;33.71;101727.00;5031957;28;20048;-87
2021/07/10 08:05:28;;;;;;;3.58;1.65;;;;;;;21.18;34.05;101730.88;5046496;28;20029;-90
2021/07/10 08:07:54;;;;;;;2.38;1.20;;;;;;;21.48;32.76;101727.84;5030550;28;20456;-89
2021/07/10 08:10:20;;;;;;;1.30;0.85;;;;;;;21.40;32.66;101730.16;5026108;28;20092;-89
2021/07/10 08:12:49;;;;;;;1.48;1.30;;;;;;;21.97;31.36;101725.03;5042017;28;20033;-88
2021/07/10 08:15:17;;;;;;;1.98;1.15;;;;;;;22.67;30.59;101727.75;5056932;28;20045;-89
2021/07/10 08:17:44;;;;;;;4.15;1.10;;;;;;;22.67;30.10;101722.41;5026505;28;20096;-88
2021/07/10 08:20:12;;;;;;;1.55;1.00;;;;;;;23.24;29.49;101726.78;5042887;28;20036;-88
2021/07/10 08:22:37;;;;;;;2.10;1.67;;;;;;;23.55;28.33;101729.66;5043652;28;20033;-88
2021/07/10 08:25:05;;;;;;;3.10;1.40;;;;;;;23.21;29.07;101722.53;5043755;28;20063;-90
2021/07/10 08:27:31;;;;;;;1.95;0.70;;;;;;;23.18;28.89;101730.78;5025596;28;20024;-89
2021/07/10 08:29:58;;;;;;;3.97;1.05;;;;;;;23.85;27.65;101723.59;5046235;28;20185;-89
2021/07/10 08:32:24;;;;;;;4.07;2.20;;;;;;;24.26;28.07;101735.28;5045940;28;20093;-89
2021/07/10 08:34:50;;;;;;;2.28;1.42;;;;;;;23.99;26.93;101722.44;5030248;28;20045;-90
2021/07/10 08:37:16;;;;;;;4.60;1.27;;;;;;;23.85;27.47;101733.41;5029775;28;20024;-90
2021/07/10 08:39:42;;;;;;;1.35;0.75;;;;;;;23.42;28.00;101727.97;5029582;28;20124;-88
2021/07/10 08:42:08;;;;;;;1.85;0.90;;;;;;;23.66;27.82;101734.09;5064512;28;20529;-87
2021/07/10 08:44:40;;;;;;;2.03;1.58;;;;;;;23.26;28.00;101727.50;5042995;28;20028;-90
2021/07/10 08:47:11;;;;;;;2.55;1.00;;;;;;;23.15;28.37;101727.53;5025654;28;20029;-87
2021/07/10 08:49:41;;;;;;;1.70;1.00;;;;;;;22.98;29.11;101721.72;5026821;28;20030;-89
2021/07/10 08:52:07;;;;;;;1.95;1.00;;;;;;;22.96;28.77;101733.47;5026852;28;20032;-89
2021/07/10 08:54:33;;;;;;;3.08;0.80;;;;;;;22.64;29.05;101733.31;5064558;28;20029;-90
2021/07/10 08:56:59;;;;;;;2.30;1.00;;;;;;;22.50;30.27;101721.09;5046248;28;20581;-89
2021/07/10 08:59:26;;;;;;;3.38;1.38;;;;;;;21.81;30.42;101723.66;5045422;28;20032;-89
2021/07/10 09:01:54;;;;;;;2.60;1.20;;;;;;;21.19;31.67;101719.28;5027427;28;20489;-88
2021/07/10 09:04:24;;;;;;;1.58;1.05;;;;;;;21.63;31.58;101726.72;5015205;28;20072;-89
2021/07/10 09:06:51;;;;;;;2.58;1.45;;;;;;;22.27;30.58;101725.50;5025337;28;20030;-89
2021/07/10 09:09:17;;;;;;;1.75;0.80;;;;;;;22.67;29.68;101722.41;5026051;28;20049;-88
2021/07/10 09:12:06;;;;;;;1.92;0.85;;;;;;;22.17;28.35;101720.06;5043426;28;20505;-88
2021/07/10 09:14:32;;;;;;;2.05;0.93;;;;;;;22.05;28.77;101716.47;5023554;28;20063;-87
2021/07/10 09:17:18;;;;;;;1.10;0.60;;;;;;;22.38;28.66;101709.53;5027560;28;20033;-88
2021/07/10 09:19:45;;;;;;;1.27;0.90;;;;;;;22.27;29.30;101713.06;5040557;28;20029;-90
2021/07/10 09:22:11;;;;;;;2.42;1.13;;;;;;;22.28;29.01;101721.91;5026235;28;20029;-88
2021/07/10 09:24:39;;;;;;;1.30;0.90;;;;;;;22.27;28.22;101714.84;5029018;28;20124;-89
2021/07/10 09:27:10;;;;;;;1.35;0.77;;;;;;;21.97;29.79;101710.88;5026264;28;20040;-89
2021/07/10 09:29:43;;;;;;;1.40;1.05;;;;;;;21.51;30.65;101706.34;5060769;28;20021;-89
2021/07/10 09:32:18;;;;;;;2.78;1.00;;;;;;;21.45;29.62;101706.78;5027437;28;20037;-88
2021/07/10 09:34:52;;;;;;;2.35;1.38;;;;;;;21.85;30.43;101701.19;5055143;28;20040;-90
2021/07/10 09:37:26;;;;;;;3.05;0.73;;;;;;;21.14;30.43;101698.38;5044838;28;20033;-89
2021/07/10 09:40:06;;;;;;;1.75;1.05;;;;;;;22.23;29.24;101698.28;5022047;28;20087;-88
2021/07/10 09:42:34;;;;;;;2.85;0.98;;;;;;;22.70;28.16;101706.25;5045407;28;20280;-88
2021/07/10 09:45:00;;;;;;;1.73;0.52;;;;;;;22.81;28.18;101703.56;5027128;28;20040;-87
2021/07/10 09:47:26;;;;;;;2.28;1.00;;;;;;;23.44;27.15;101700.34;5043545;28;20560;-88
2021/07/10 09:49:52;;;;;;;1.80;0.85;;;;;;;23.15;27.50;101690.19;5043652;28;20061;-89
2021/07/10 09:52:20;;;;;;;1.02;0.70;;;;;;;23.51;25.95;101704.19;5025677;28;20037;-91
2021/07/10 09:54:59;;;;;;;1.20;1.02;;;;;;;23.28;27.67;101693.59;5025174;28;20037;-87
2021/07/10 09:57:36;;;;;;;5.85;3.67;;;;;;;23.08;28.85;101691.66;5039523;28;20040;-89
2021/07/10 10:00:22;;;;;;;2.17;1.55;;;;;;;23.89;26.73;101700.19;5042195;28;20055;-88
2021/07/10 10:02:56;;;;;;;1.42;0.98;;;;;;;24.45;25.36;101686.50;5030108;28;20045;-88
2021/07/10 10:05:28;;;;;;;1.65;0.90;;;;;;;24.41;26.65;101693.03;5062318;28;20056;-89
2021/07/10 10:08:02;;;;;;;2.17;1.20;;;;;;;24.70;26.75;101692.34;5033157;28;20044;-89
2021/07/10 10:10:31;;;;;;;2.30;0.95;;;;;;;25.22;26.70;101685.09;5042857;28;20041;-89
2021/07/10 10:13:07;;;;;;;2.00;0.80;;;;;;;25.17;25.32;101698.00;5041924;28;20588;-88
2021/07/10 10:15:47;;;;;;;1.20;0.95;;;;;;;24.91;24.92;101693.16;5028924;28;20052;-87
2021/07/10 10:18:21;;;;;;;2.08;0.75;;;;;;;24.50;25.71;101696.78;5023719;28;20091;-88
2021/07/10 10:20:53;;;;;;;1.83;1.35;;;;;;;22.87;27.79;101687.06;5061667;28;20045;-87
2021/07/10 10:23:21;;;;;;;1.45;0.88;;;;;;;22.23;28.50;101692.13;5027770;28;20036;-87
2021/07/10 10:25:50;;;;;;;1.85;0.95;;;;;;;22.72;28.06;101688.31;5024442;28;20399;-87
2021/07/10 10:28:21;;;;;;;1.23;0.88;;;;;;;22.87;28.66;101687.06;5048879;28;20029;-89
2021/07/10 10:30:49;;;;;;;1.53;0.90;;;;;;;23.45;28.00;101678.84;5031143;28;20040;-89
2021/07/10 10:33:15;;;;;;;1.55;1.05;;;;;;;23.73;27.27;101677.41;5029453;28;20282;-88
2021/07/10 10:35:49;;;;;;;1.55;0.95;;;;;;;22.92;28.98;101679.56;5044129;28;20040;-88
2021/07/10 10:38:17;;;;;;;1.30;0.88;;;;;;;21.84;30.33;101686.16;5033136;28;20120;-88
2021/07/10 10:40:44;;;;;;;1.30;1.20;;;;;;;21.91;29.36;101682.06;5008419;28;20068;-88
2021/07/10 10:43:14;;;;;;;2.08;0.70;;;;;;;22.11;28.95;101684.09;5026525;28;20045;-89
2021/07/10 10:45:41;;;;;;;3.80;1.27;;;;;;;23.31;28.85;101682.66;5022640;28;20045;-88
2021/07/10 10:48:08;;;;;;;1.38;0.75;;;;;;;23.59;28.27;101677.72;5033038;28;20057;-88
2021/07/10 10:50:36;;;;;;;1.77;0.82;;;;;;;22.59;27.76;101681.25;5043165;28;20033;-88
2021/07/10 10:53:04;;;;;;;2.22;1.10;;;;;;;22.53;28.78;101681.72;5042638;28;20032;-87
2021/07/10 10:55:30;;;;;;;2.00;1.20;;;;;;;22.35;29.56;101680.50;5027487;28;20028;-87
2021/07/10 10:58:01;;;;;;;2.83;1.88;;;;;;;22.43;28.96;101672.78;5030381;28;20112;-89
2021/07/10 11:00:36;;;;;;;1.97;0.60;;;;;;;22.58;27.85;101674.25;5061812;28;20046;-88
2021/07/10 11:03:35;;;;;;;1.92;1.02;;;;;;;22.65;28.84;101671.06;5026752;28;20061;-87
2021/07/10 11:06:27;;;;;;;2.05;0.90;;;;;;;23.84;28.19;101665.84;5025371;28;20072;-87
2021/07/10 11:08:59;;;;;;;1.63;0.95;;;;;;;24.29;27.12;101664.72;5044962;28;20041;-89
2021/07/10 11:11:31;;;;;;;2.30;0.85;;;;;;;24.75;25.89;101661.59;5056989;28;20029;-87
2021/07/10 11:14:08;;;;;;;1.65;0.85;;;;;;;25.90;24.99;101657.47;5042283;28;20071;-88
2021/07/10 11:16:37;;;;;;;1.83;0.98;;;;;;;25.21;25.01;101652.13;5070308;28;20033;-87
2021/07/10 11:19:20;;;;;;;2.47;1.45;;;;;;;24.81;26.29;101649.47;5038718;28;20060;-87
2021/07/10 11:21:53;;;;;;;2.55;1.23;;;;;;;24.82;26.42;101654.69;5034745;28;20109;-89
2021/07/10 11:24:20;;;;;;;3.78;1.02;;;;;;;24.95;26.56;101646.44;5051387;28;20032;-87